createdAt,value
2023-04-07T00:01:10.860Z,9.50
2023-04-07T00:03:41.151Z,9.50
2023-04-07T00:06:09.403Z,9.50
2023-04-07T00:08:37.537Z,9.50
2023-04-07T00:11:05.868Z,9.50
2023-04-07T00:13:33.970Z,9.50
2023-04-07T00:16:02.192Z,9.40
2023-04-07T00:18:30.355Z,9.40
2023-04-07T00:20:59.792Z,9.40
2023-04-07T00:23:27.880Z,9.40
2023-04-07T00:25:56.103Z,9.40
2023-04-07T00:28:24.278Z,9.40
2023-04-07T00:30:52.392Z,9.40
2023-04-07T00:33:20.499Z,9.40
2023-04-07T00:35:48.681Z,9.40
2023-04-07T00:38:18.251Z,9.30
2023-04-07T00:40:46.489Z,9.30
2023-04-07T00:43:14.599Z,9.30
2023-04-07T00:45:42.962Z,9.40
2023-04-07T00:48:12.131Z,9.40
2023-04-07T00:50:40.272Z,9.30
2023-04-07T00:53:08.829Z,9.60
2023-04-07T00:55:38.495Z,9.60
2023-04-07T00:58:06.770Z,9.50
2023-04-07T01:00:42.458Z,9.40
2023-04-07T01:03:15.020Z,9.60
2023-04-07T01:05:51.822Z,9.30
2023-04-07T01:08:26.653Z,9.50
2023-04-07T01:11:12.379Z,9.30
2023-04-07T01:13:47.361Z,9.30
2023-04-07T01:16:26.579Z,9.30
2023-04-07T01:18:58.466Z,9.30
2023-04-07T01:21:29.763Z,9.20
2023-04-07T01:24:11.465Z,9.30
2023-04-07T01:26:42.411Z,9.20
2023-04-07T01:29:35.536Z,9.20
2023-04-07T01:32:06.338Z,9.30
2023-04-07T01:34:35.279Z,9.20
2023-04-07T01:37:04.287Z,9.30
2023-04-07T01:39:33.668Z,9.30
2023-04-07T01:42:03.054Z,9.30
2023-04-07T01:44:33.592Z,9.20
2023-04-07T01:47:03.835Z,9.40
2023-04-07T01:49:33.111Z,9.20
2023-04-07T01:52:02.697Z,9.10
2023-04-07T01:54:31.548Z,9.00
2023-04-07T01:56:59.690Z,9.00
2023-04-07T01:59:27.800Z,9.00
2023-04-07T02:01:56.199Z,9.00
2023-04-07T02:04:32.205Z,8.90
2023-04-07T02:07:04.066Z,8.90
2023-04-07T02:09:34.439Z,8.90
2023-04-07T02:12:05.424Z,8.90
2023-04-07T02:14:34.455Z,8.90
2023-04-07T02:17:03.813Z,8.80
2023-04-07T02:19:34.768Z,8.80
2023-04-07T02:22:04.478Z,8.80
2023-04-07T02:24:32.553Z,8.80
2023-04-07T02:27:02.323Z,8.70
2023-04-07T02:29:30.578Z,8.70
2023-04-07T02:31:58.741Z,8.80
2023-04-07T02:34:26.956Z,8.80
2023-04-07T02:36:56.440Z,8.70
2023-04-07T02:39:24.545Z,8.60
2023-04-07T02:41:52.641Z,8.60
2023-04-07T02:44:20.778Z,8.60
2023-04-07T02:46:48.920Z,8.60
2023-04-07T02:49:17.021Z,8.60
2023-04-07T02:51:46.964Z,8.70
2023-04-07T02:54:16.715Z,8.60
2023-04-07T02:56:44.780Z,8.60
2023-04-07T02:59:12.879Z,8.50
2023-04-07T03:04:09.561Z,8.40
2023-04-07T03:06:37.805Z,8.70
2023-04-07T03:09:05.924Z,8.40
2023-04-07T03:11:35.985Z,8.30
2023-04-07T03:14:04.069Z,8.30
2023-04-07T03:16:32.434Z,8.30
2023-04-07T03:19:00.582Z,8.50
2023-04-07T03:21:29.162Z,8.40
2023-04-07T03:23:57.330Z,8.40
2023-04-07T03:26:25.506Z,8.40
2023-04-07T03:28:55.520Z,8.30
2023-04-07T03:33:52.919Z,7.90
2023-04-07T03:36:21.160Z,8.10
2023-04-07T03:38:49.800Z,8.10
2023-04-07T03:41:17.892Z,8.00
2023-04-07T03:43:46.836Z,8.00
2023-04-07T03:46:16.627Z,8.00
2023-04-07T03:48:44.825Z,8.00
2023-04-07T03:51:13.114Z,7.90
2023-04-07T03:53:41.412Z,7.90
2023-04-07T03:56:09.635Z,7.90
2023-04-07T03:58:37.814Z,7.90
2023-04-07T04:01:06.112Z,8.00
2023-04-07T04:03:36.209Z,7.90
2023-04-07T04:06:04.851Z,7.80
2023-04-07T04:08:32.945Z,7.90
2023-04-07T04:11:01.097Z,7.90
2023-04-07T04:13:29.165Z,7.80
2023-04-07T04:18:26.924Z,7.80
2023-04-07T04:20:56.423Z,7.80
2023-04-07T04:23:24.560Z,7.70
2023-04-07T04:25:52.713Z,7.80
2023-04-07T04:28:21.115Z,7.70
2023-04-07T04:33:17.644Z,7.80
2023-04-07T04:35:47.349Z,7.60
2023-04-07T04:38:17.820Z,7.60
2023-04-07T04:40:46.000Z,7.50
2023-04-07T04:45:42.450Z,7.40
2023-04-07T04:48:11.096Z,7.40
2023-04-07T04:50:39.181Z,7.50
2023-04-07T04:53:10.178Z,7.50
2023-04-07T04:55:40.887Z,7.20
2023-04-07T04:58:08.978Z,7.30
2023-04-07T05:00:37.127Z,7.30
2023-04-07T05:03:05.556Z,7.20
2023-04-07T05:05:33.807Z,7.30
2023-04-07T05:08:01.952Z,7.10
2023-04-07T05:10:30.159Z,7.10
2023-04-07T05:12:59.654Z,7.10
2023-04-07T05:15:27.801Z,6.90
2023-04-07T05:17:56.310Z,7.10
2023-04-07T05:20:24.599Z,7.00
2023-04-07T05:22:52.730Z,6.90
2023-04-07T05:27:49.438Z,6.80
2023-04-07T05:30:19.167Z,7.10
2023-04-07T05:32:47.322Z,6.90
2023-04-07T05:35:15.967Z,6.80
2023-04-07T05:37:44.140Z,6.80
2023-04-07T06:00:06.095Z,6.70
2023-04-07T06:02:34.350Z,6.90
2023-04-07T06:05:04.099Z,6.90
2023-04-07T06:07:32.202Z,7.10
2023-04-07T06:10:00.363Z,7.10
2023-04-07T06:12:28.494Z,7.30
2023-04-07T06:14:57.145Z,7.20
2023-04-07T06:17:25.347Z,7.30
2023-04-07T06:19:53.537Z,7.50
2023-04-07T06:22:23.068Z,7.70
2023-04-07T06:24:51.219Z,7.60
2023-04-07T06:27:19.364Z,7.60
2023-04-07T06:29:47.474Z,7.70
2023-04-07T06:32:15.606Z,8.00
2023-04-07T06:34:43.835Z,8.10
2023-04-07T06:37:12.356Z,8.20
2023-04-07T06:39:42.288Z,8.70
2023-04-07T06:42:10.481Z,9.00
2023-04-07T06:44:38.608Z,9.00
2023-04-07T06:47:06.928Z,9.10
2023-04-07T06:49:37.043Z,8.80
2023-04-07T06:52:06.054Z,8.90
2023-04-07T06:54:34.306Z,9.10
2023-04-07T06:57:03.894Z,9.30
2023-04-07T06:59:32.069Z,9.80
2023-04-07T07:02:00.456Z,9.90
2023-04-07T07:04:28.796Z,10.00
2023-04-07T07:06:57.038Z,10.20
2023-04-07T07:09:26.605Z,10.50
2023-04-07T07:11:54.759Z,11.00
2023-04-07T07:16:52.736Z,11.40
2023-04-07T07:19:20.856Z,11.50
2023-04-07T07:21:49.021Z,11.60
2023-04-07T07:24:17.180Z,11.80
2023-04-07T07:26:46.028Z,11.50
2023-04-07T07:29:14.117Z,11.40
2023-04-07T07:31:44.117Z,11.40
2023-04-07T07:34:12.217Z,11.50
2023-04-07T07:36:40.347Z,11.50
2023-04-07T07:39:08.549Z,11.50
2023-04-07T07:41:36.905Z,11.80
2023-04-07T07:44:05.056Z,12.20
2023-04-07T07:46:33.254Z,12.50
2023-04-07T07:49:02.791Z,12.60
2023-04-07T07:51:31.190Z,13.10
2023-04-07T07:53:59.290Z,12.90
2023-04-07T07:56:27.488Z,12.50
2023-04-07T07:58:56.314Z,12.40
2023-04-07T08:03:54.238Z,12.60
2023-04-07T08:06:24.068Z,12.90
2023-04-07T08:08:52.286Z,12.90
2023-04-07T08:11:21.359Z,13.10
2023-04-07T08:13:49.693Z,13.40
2023-04-07T08:16:19.375Z,13.50
2023-04-07T08:18:47.928Z,13.20
2023-04-07T08:21:16.369Z,12.80
2023-04-07T08:23:46.596Z,12.80
2023-04-07T08:28:43.424Z,12.50
2023-04-07T08:31:11.579Z,12.40
2023-04-07T08:33:39.713Z,12.40
2023-04-07T08:36:08.359Z,12.60
2023-04-07T08:38:36.516Z,12.40
2023-04-07T08:41:11.725Z,12.30
2023-04-07T08:46:11.420Z,11.90
2023-04-07T08:48:40.321Z,11.90
2023-04-07T08:51:10.372Z,11.80
2023-04-07T08:53:44.401Z,11.80
2023-04-07T08:56:15.392Z,11.80
2023-04-07T08:58:43.958Z,11.90
2023-04-07T09:01:12.640Z,12.00
2023-04-07T09:03:41.617Z,12.10
2023-04-07T09:06:11.993Z,12.30
2023-04-07T09:08:40.224Z,12.70
2023-04-07T09:11:08.435Z,12.60
2023-04-07T09:13:37.853Z,12.50
2023-04-07T09:16:06.660Z,12.20
2023-04-07T09:18:35.473Z,12.30
2023-04-07T09:21:05.004Z,12.30
2023-04-07T09:23:34.867Z,12.40
2023-04-07T09:26:20.234Z,12.50
2023-04-07T09:28:51.715Z,12.60
2023-04-07T09:31:21.233Z,12.80
2023-04-07T09:33:50.198Z,13.40
2023-04-07T09:36:18.482Z,13.70
2023-04-07T09:38:47.218Z,14.00
2023-04-07T09:41:17.044Z,14.10
2023-04-07T09:43:47.206Z,14.20
2023-04-07T09:46:18.169Z,14.10
2023-04-07T09:48:48.579Z,14.10
2023-04-07T09:51:18.454Z,14.30
2023-04-07T09:53:49.070Z,14.40
2023-04-07T09:56:18.987Z,14.50
2023-04-07T09:58:48.303Z,14.50
2023-04-07T10:01:18.582Z,14.80
2023-04-07T10:03:49.266Z,15.20
2023-04-07T10:08:46.308Z,14.90
2023-04-07T10:11:14.615Z,14.60
2023-04-07T10:13:43.013Z,14.50
2023-04-07T10:16:11.261Z,14.30
2023-04-07T10:18:41.886Z,14.20
2023-04-07T10:21:15.231Z,14.10
2023-04-07T10:23:52.527Z,13.90
2023-04-07T10:26:27.017Z,14.00
2023-04-07T10:29:05.715Z,13.80
2023-04-07T10:31:34.725Z,13.80
2023-04-07T10:34:04.311Z,13.80
2023-04-07T10:36:32.493Z,13.70
2023-04-07T10:39:22.221Z,13.70
2023-04-07T10:41:51.914Z,13.70
2023-04-07T10:44:50.704Z,13.80
2023-04-07T10:47:19.416Z,13.80
2023-04-07T10:50:21.621Z,13.50
2023-04-07T10:52:50.434Z,13.50
2023-04-07T10:55:32.877Z,13.70
2023-04-07T10:58:21.109Z,13.60
2023-04-07T11:01:23.368Z,13.70
2023-04-07T11:04:00.112Z,13.60
2023-04-07T11:06:29.787Z,13.70
2023-04-07T11:08:57.938Z,13.70
2023-04-07T11:11:43.007Z,13.60
2023-04-07T11:14:11.671Z,13.70
2023-04-07T11:16:45.683Z,13.80
2023-04-07T11:19:13.832Z,13.60
2023-04-07T11:21:43.372Z,13.40
2023-04-07T11:24:11.741Z,13.40
2023-04-07T11:26:41.671Z,13.30
2023-04-07T11:29:10.518Z,13.30
2023-04-07T11:31:40.057Z,13.40
2023-04-07T11:34:09.112Z,13.40
2023-04-07T11:36:40.389Z,13.60
2023-04-07T11:39:21.422Z,13.70
2023-04-07T11:41:51.085Z,13.70
2023-04-07T11:44:19.265Z,13.80
2023-04-07T11:46:58.890Z,13.60
2023-04-07T11:49:29.173Z,13.30
2023-04-07T11:52:02.063Z,13.20
2023-04-07T11:54:41.421Z,13.30
2023-04-07T11:57:12.121Z,13.40
2023-04-07T11:59:41.013Z,13.40
2023-04-07T12:02:09.606Z,13.50
2023-04-07T12:04:40.830Z,13.70
2023-04-07T12:07:10.913Z,13.80
2023-04-07T12:09:41.088Z,13.70
2023-04-07T12:12:10.751Z,13.90
2023-04-07T12:14:39.030Z,13.80
2023-04-07T12:17:09.437Z,14.00
2023-04-07T12:19:39.645Z,14.20
2023-04-07T12:22:07.878Z,14.40
2023-04-07T12:24:36.020Z,15.00
2023-04-07T12:27:05.512Z,15.20
2023-04-07T12:29:34.611Z,15.10
2023-04-07T12:32:02.800Z,15.10
2023-04-07T12:34:30.952Z,15.20
2023-04-07T12:36:59.060Z,15.20
2023-04-07T12:39:27.640Z,15.30
2023-04-07T12:41:55.735Z,15.50
2023-04-07T12:44:25.427Z,15.60
2023-04-07T12:46:53.490Z,15.70
2023-04-07T12:49:21.625Z,15.80
2023-04-07T12:54:18.469Z,15.30
2023-04-07T12:56:46.925Z,15.10
2023-04-07T12:59:15.108Z,15.00
2023-04-07T13:01:44.673Z,15.10
2023-04-07T13:04:13.057Z,15.10
2023-04-07T13:06:41.398Z,15.20
2023-04-07T13:09:09.496Z,15.40
2023-04-07T13:11:37.624Z,15.40
2023-04-07T13:14:06.852Z,15.40
2023-04-07T13:16:34.975Z,15.20
2023-04-07T13:19:04.484Z,15.20
2023-04-07T13:24:03.742Z,14.30
2023-04-07T13:26:31.835Z,14.30
2023-04-07T13:28:59.917Z,14.30
2023-04-07T13:31:28.721Z,14.40
2023-04-07T13:33:56.837Z,14.50
2023-04-07T13:36:27.348Z,14.40
2023-04-07T13:38:56.920Z,14.30
2023-04-07T13:41:25.149Z,14.10
2023-04-07T13:43:53.231Z,14.30
2023-04-07T13:46:28.460Z,14.30
2023-04-07T13:48:57.395Z,14.30
2023-04-07T13:51:28.015Z,14.00
2023-04-07T13:53:56.217Z,14.00
2023-04-07T13:56:24.810Z,14.10
2023-04-07T13:58:52.916Z,14.30
2023-04-07T14:01:21.069Z,14.20
2023-04-07T14:03:50.586Z,14.40
2023-04-07T14:06:22.510Z,14.50
2023-04-07T14:08:52.299Z,14.50
2023-04-07T14:11:22.011Z,14.60
2023-04-07T14:13:50.912Z,14.60
2023-04-07T14:16:19.419Z,14.60
2023-04-07T14:18:49.426Z,14.60
2023-04-07T14:21:17.532Z,14.60
2023-04-07T14:23:45.784Z,14.60
2023-04-07T14:26:15.431Z,14.70
2023-04-07T14:28:43.561Z,14.70
2023-04-07T14:31:15.219Z,14.60
2023-04-07T14:33:43.878Z,14.80
2023-04-07T14:36:12.084Z,14.90
2023-04-07T14:38:40.214Z,14.80
2023-04-07T14:41:10.435Z,14.90
2023-04-07T14:43:41.182Z,15.10
2023-04-07T14:46:10.043Z,15.10
2023-04-07T14:48:38.269Z,15.00
2023-04-07T14:51:12.933Z,15.00
2023-04-07T14:53:43.455Z,14.70
2023-04-07T14:56:11.712Z,14.50
2023-04-07T14:58:41.437Z,14.40
2023-04-07T15:01:09.566Z,14.30
2023-04-07T15:03:37.873Z,14.40
2023-04-07T15:06:09.924Z,14.30
2023-04-07T15:08:38.318Z,14.20
2023-04-07T15:11:06.882Z,14.70
2023-04-07T15:13:35.151Z,15.40
2023-04-07T15:16:12.828Z,15.20
2023-04-07T15:18:42.647Z,15.40
2023-04-07T15:21:11.604Z,15.60
2023-04-07T15:23:41.723Z,15.70
2023-04-07T15:26:10.432Z,15.80
2023-04-07T15:28:38.917Z,15.70
2023-04-07T15:31:09.029Z,15.70
2023-04-07T15:33:39.782Z,15.90
2023-04-07T15:36:09.410Z,16.00
2023-04-07T15:38:38.906Z,16.00
2023-04-07T15:41:07.270Z,15.90
2023-04-07T15:43:36.880Z,15.90
2023-04-07T15:46:06.298Z,15.60
2023-04-07T15:48:34.433Z,15.30
2023-04-07T15:51:04.017Z,15.20
2023-04-07T15:53:32.132Z,15.20
2023-04-07T15:56:00.246Z,15.00
2023-04-07T16:00:57.555Z,14.50
2023-04-07T16:03:28.218Z,15.00
2023-04-07T16:05:56.614Z,14.90
2023-04-07T16:08:26.290Z,14.80
2023-04-07T16:10:54.433Z,14.60
2023-04-07T16:13:22.555Z,14.50
2023-04-07T16:15:50.680Z,14.40
2023-04-07T16:18:18.748Z,14.30
2023-04-07T16:20:46.973Z,14.10
2023-04-07T16:30:41.871Z,13.80
2023-04-07T16:33:10.074Z,13.70
2023-04-07T16:35:38.277Z,13.70
2023-04-07T16:38:07.023Z,13.60
2023-04-07T16:40:35.236Z,13.60
2023-04-07T16:43:04.797Z,13.50
2023-04-07T16:45:32.929Z,13.40
2023-04-07T16:48:01.044Z,13.30
2023-04-07T16:50:29.259Z,13.30
2023-04-07T16:52:57.728Z,13.30
2023-04-07T16:55:25.949Z,13.30
2023-04-07T16:57:54.078Z,13.30
2023-04-07T17:00:23.782Z,13.20
2023-04-07T17:02:52.054Z,13.20
2023-04-07T17:05:20.310Z,13.10
2023-04-07T17:07:48.861Z,12.90
2023-04-07T17:10:17.188Z,12.90
2023-04-07T17:12:45.490Z,12.90
2023-04-07T17:15:13.583Z,12.90
2023-04-07T17:17:43.112Z,12.90
2023-04-07T17:20:12.494Z,12.80
2023-04-07T17:22:40.572Z,12.70
2023-04-07T17:25:09.813Z,12.70
2023-04-07T17:27:37.945Z,12.60
2023-04-07T17:30:07.784Z,12.60
2023-04-07T17:32:35.987Z,12.50
2023-04-07T17:35:05.793Z,12.40
2023-04-07T17:37:33.864Z,12.30
2023-04-07T17:40:02.053Z,12.30
2023-04-07T17:42:30.287Z,12.30
2023-04-07T17:44:58.453Z,12.30
2023-04-07T17:47:26.706Z,12.20
2023-04-07T17:49:54.829Z,12.20
2023-04-07T17:52:24.402Z,12.10
2023-04-07T17:54:52.880Z,12.00
2023-04-07T17:57:21.068Z,12.00
2023-04-07T17:59:49.686Z,12.10
2023-04-07T18:02:21.799Z,12.00
2023-04-07T18:04:50.551Z,11.80
2023-04-07T18:07:18.681Z,11.80
2023-04-07T18:09:49.221Z,11.70
2023-04-07T18:12:17.446Z,11.70
2023-04-07T18:14:45.615Z,11.70
2023-04-07T18:17:13.730Z,11.70
2023-04-07T18:19:41.873Z,11.60
2023-04-07T18:22:10.778Z,11.50
2023-04-07T18:24:39.060Z,11.50
2023-04-07T18:27:08.611Z,11.50
2023-04-07T18:29:36.720Z,11.50
2023-04-07T18:32:04.923Z,11.50
2023-04-07T18:34:33.098Z,11.50
2023-04-07T18:37:01.282Z,11.40
2023-04-07T18:39:29.445Z,11.50
2023-04-07T18:41:57.897Z,11.40
2023-04-07T18:44:28.530Z,11.40
2023-04-07T18:46:56.767Z,11.40
2023-04-07T18:49:26.613Z,11.40
2023-04-07T18:51:56.538Z,11.40
2023-04-07T18:54:27.078Z,11.40
2023-04-07T18:56:56.236Z,11.20
2023-04-07T18:59:24.823Z,11.20
2023-04-07T19:01:54.606Z,11.20
2023-04-07T19:04:24.886Z,11.20
2023-04-07T19:06:53.551Z,11.20
2023-04-07T19:09:21.812Z,11.20
2023-04-07T19:11:49.905Z,11.20
2023-04-07T19:14:17.990Z,11.10
2023-04-07T19:16:46.979Z,11.20
2023-04-07T19:19:17.359Z,11.10
2023-04-07T19:21:45.544Z,11.20
2023-04-07T19:24:13.726Z,11.10
2023-04-07T19:26:42.361Z,11.10
2023-04-07T19:29:12.541Z,11.10
2023-04-07T19:31:40.790Z,11.10
2023-04-07T19:34:09.065Z,11.00
2023-04-07T19:36:38.568Z,11.00
2023-04-07T19:39:06.850Z,10.90
2023-04-07T19:41:35.030Z,10.90
2023-04-07T19:44:03.139Z,10.90
2023-04-07T19:46:33.277Z,10.90
2023-04-07T19:49:01.456Z,10.90
2023-04-07T19:51:29.544Z,10.90
2023-04-07T19:53:59.045Z,10.90
2023-04-07T19:56:27.278Z,10.80
2023-04-07T19:58:55.421Z,10.80
2023-04-07T20:01:23.587Z,10.90
2023-04-07T20:03:52.102Z,10.80
2023-04-07T20:06:21.424Z,10.80
2023-04-07T20:08:49.728Z,10.80
2023-04-07T20:11:19.428Z,10.80
2023-04-07T20:13:49.491Z,10.80
2023-04-07T20:16:17.694Z,10.80
2023-04-07T20:18:46.274Z,10.80
2023-04-07T20:21:15.836Z,10.70
2023-04-07T20:23:44.418Z,10.60
2023-04-07T21:20:57.877Z,10.10
2023-04-07T21:23:26.031Z,10.50
2023-04-07T21:25:54.152Z,10.30
2023-04-07T21:28:22.237Z,10.40
2023-04-07T21:30:53.286Z,10.20
2023-04-07T21:33:21.423Z,10.30
2023-04-07T21:35:49.830Z,10.20
2023-04-07T21:38:19.491Z,10.30
2023-04-07T21:40:47.754Z,10.20
2023-04-07T21:43:16.035Z,10.20
2023-04-07T21:45:44.145Z,10.20
2023-04-07T21:48:13.396Z,10.20
2023-04-07T21:50:41.512Z,10.20
2023-04-07T21:53:10.443Z,10.20
2023-04-07T21:55:39.896Z,10.20
2023-04-07T21:58:08.019Z,10.20
2023-04-07T22:00:36.539Z,10.20
2023-04-07T22:03:04.917Z,10.20
2023-04-07T22:05:33.269Z,10.10
2023-04-07T22:08:02.365Z,10.10
2023-04-07T22:10:30.602Z,10.10
2023-04-07T22:13:00.301Z,10.10
2023-04-07T22:15:28.465Z,10.10
2023-04-07T22:17:57.845Z,10.00
2023-04-07T22:20:27.198Z,10.00
2023-04-07T22:22:57.714Z,10.00
2023-04-07T22:25:26.515Z,10.00
2023-04-07T22:27:56.826Z,9.90
2023-04-07T22:30:26.575Z,10.00
2023-04-07T22:32:54.836Z,10.00
2023-04-07T22:35:23.039Z,9.90
2023-04-07T22:37:51.130Z,9.90
2023-04-07T22:40:19.252Z,9.80
2023-04-07T22:42:47.375Z,9.90
2023-04-07T22:45:15.598Z,9.90
2023-04-07T22:47:45.515Z,9.90
2023-04-07T22:50:13.689Z,9.90
2023-04-07T22:52:41.873Z,9.80
2023-04-07T22:55:11.031Z,9.90
2023-04-07T22:57:39.137Z,9.80
2023-04-07T23:00:08.724Z,9.80
2023-04-07T23:02:36.926Z,9.80
2023-04-07T23:05:10.122Z,9.70
2023-04-07T23:07:38.442Z,9.80
2023-04-07T23:10:07.755Z,9.80
2023-04-07T23:12:36.151Z,9.80
2023-04-07T23:15:04.320Z,9.80
2023-04-07T23:17:32.433Z,9.70
2023-04-07T23:20:00.586Z,9.70
2023-04-07T23:22:30.036Z,9.70
2023-04-07T23:24:58.129Z,9.70
2023-04-07T23:27:26.278Z,9.70
2023-04-07T23:29:54.410Z,9.70
2023-04-07T23:32:22.668Z,9.70
2023-04-07T23:34:50.996Z,9.60
2023-04-07T23:37:19.178Z,9.60
2023-04-07T23:39:48.677Z,9.60
2023-04-07T23:42:16.855Z,9.60
2023-04-07T23:44:44.948Z,9.70
2023-04-07T23:47:13.098Z,9.70
2023-04-07T23:49:41.240Z,9.70
2023-04-07T23:52:09.701Z,9.70
2023-04-07T23:54:37.816Z,9.70
2023-04-07T23:57:07.440Z,9.70
2023-04-07T23:59:35.540Z,9.60
